Terminal Aerodrome Forecast
Issued by NWS

Home | Current Version | Previous Version | Text Only | Print | Product List | Glossary On
Versions: 1 2 3 4 5 6 7 8 9 10 11 12 13 14 15 16 17 18 19 20 21 22 23 24 25 26 27 28 29 30 31 32 33 34 35
778
FTUS43 KSGF 190556 CCA
TAFJLN
TAF COR
KJLN 190556Z 1906/2006 14006KT P6SM OVC008
     FM190800 15004KT 3SM BR OVC003
      TEMPO 1912/1914 2SM -DZ BR OVC002
     FM191600 18006KT 4SM BR OVC007
     FM192000 15005KT P6SM OVC015=

USA.gov is the U.S. government's official web portal to all federal, state and local government web resources and services.